createdAt,value
2022-12-20T00:01:30.350Z,4.98
2022-12-20T00:03:59.572Z,5.02
2022-12-20T00:06:26.655Z,5.06
2022-12-20T00:08:55.177Z,5.05
2022-12-20T00:11:22.021Z,5.04
2022-12-20T00:13:48.446Z,4.93
2022-12-20T00:16:20.528Z,4.88
2022-12-20T00:18:47.891Z,4.92
2022-12-20T00:21:15.107Z,4.95
2022-12-20T00:23:42.199Z,4.97
2022-12-20T00:26:12.320Z,4.90
2022-12-20T00:28:40.437Z,4.94
2022-12-20T00:31:07.895Z,5.00
2022-12-20T00:33:35.920Z,5.05
2022-12-20T00:36:02.335Z,5.06
2022-12-20T00:38:28.881Z,5.10
2022-12-20T00:41:06.849Z,5.09
2022-12-20T00:43:33.719Z,5.01
2022-12-20T00:46:01.006Z,5.00
2022-12-20T00:48:28.648Z,4.97
2022-12-20T00:51:00.288Z,4.98
2022-12-20T00:53:27.453Z,4.93
2022-12-20T00:55:54.494Z,4.93
2022-12-20T00:58:21.532Z,4.94
2022-12-20T01:00:55.927Z,4.97
2022-12-20T01:03:23.467Z,4.97
2022-12-20T01:05:56.275Z,4.99
2022-12-20T01:08:23.683Z,4.96
2022-12-20T01:11:00.039Z,4.85
2022-12-20T01:13:27.073Z,4.92
2022-12-20T01:15:53.623Z,4.95
2022-12-20T01:18:20.137Z,5.00
2022-12-20T01:20:46.641Z,5.03
2022-12-20T01:23:13.046Z,5.01
2022-12-20T01:25:39.441Z,5.00
2022-12-20T01:28:05.915Z,5.01
2022-12-20T01:30:32.363Z,5.05
2022-12-20T01:32:58.744Z,5.05
2022-12-20T01:35:25.162Z,5.06
2022-12-20T01:37:51.561Z,5.03
2022-12-20T01:40:17.974Z,5.00
2022-12-20T01:42:44.375Z,5.00
2022-12-20T01:45:21.767Z,5.01
2022-12-20T01:47:48.240Z,4.98
2022-12-20T01:50:14.670Z,5.02
2022-12-20T01:52:45.349Z,5.03
2022-12-20T01:55:15.114Z,4.98
2022-12-20T01:57:49.185Z,4.97
2022-12-20T02:00:17.203Z,4.97
2022-12-20T02:02:46.585Z,4.92
2022-12-20T02:05:14.609Z,4.92
2022-12-20T02:07:43.657Z,4.91
2022-12-20T02:10:12.460Z,4.90
2022-12-20T02:12:44.822Z,4.95
2022-12-20T02:15:20.234Z,4.95
2022-12-20T02:18:15.922Z,4.99
2022-12-20T02:20:48.424Z,4.97
2022-12-20T02:23:33.506Z,4.96
2022-12-20T02:26:34.625Z,5.02
2022-12-20T02:29:30.106Z,5.03
2022-12-20T02:32:23.265Z,4.98
2022-12-20T02:34:50.555Z,4.97
2022-12-20T02:37:17.097Z,5.00
2022-12-20T02:39:45.926Z,4.99
2022-12-20T02:42:16.045Z,4.96
2022-12-20T02:45:08.389Z,4.94
2022-12-20T02:47:41.255Z,4.94
2022-12-20T02:50:09.817Z,4.96
2022-12-20T02:52:38.631Z,4.95
2022-12-20T02:55:05.806Z,4.93
2022-12-20T02:58:01.586Z,4.96
2022-12-20T03:00:34.154Z,4.96
2022-12-20T03:03:37.042Z,4.99
2022-12-20T03:06:03.957Z,4.98
2022-12-20T03:08:30.628Z,4.95
2022-12-20T03:10:57.173Z,4.97
2022-12-20T03:13:25.054Z,5.01
2022-12-20T03:15:51.921Z,4.92
2022-12-20T03:18:18.601Z,4.93
2022-12-20T03:20:45.064Z,4.96
2022-12-20T03:23:11.475Z,4.96
2022-12-20T03:25:37.937Z,4.99
2022-12-20T03:28:04.952Z,4.99
2022-12-20T03:30:31.751Z,5.00
2022-12-20T03:32:58.293Z,4.99
2022-12-20T03:35:24.795Z,5.02
2022-12-20T03:37:51.199Z,5.09
2022-12-20T03:40:17.675Z,5.06
2022-12-20T03:42:44.160Z,5.08
2022-12-20T03:45:11.195Z,5.06
2022-12-20T03:47:37.933Z,5.03
2022-12-20T03:50:06.226Z,4.90
2022-12-20T03:52:32.847Z,4.90
2022-12-20T03:54:59.286Z,4.94
2022-12-20T03:57:25.761Z,5.00
2022-12-20T03:59:54.159Z,5.00
2022-12-20T04:02:21.631Z,5.01
2022-12-20T04:04:48.791Z,5.04
2022-12-20T04:07:15.625Z,5.02
2022-12-20T04:09:42.062Z,5.03
2022-12-20T04:12:08.492Z,5.03
2022-12-20T04:14:35.840Z,5.01
2022-12-20T04:17:02.254Z,4.98
2022-12-20T04:19:28.756Z,5.03
2022-12-20T04:22:02.695Z,5.06
2022-12-20T04:24:31.510Z,5.02
2022-12-20T04:26:57.955Z,5.01
2022-12-20T04:29:24.386Z,4.99
2022-12-20T04:31:50.930Z,4.97
2022-12-20T04:34:17.583Z,4.96
2022-12-20T04:36:43.993Z,4.96
2022-12-20T04:39:10.528Z,4.98
2022-12-20T04:41:36.984Z,5.02
2022-12-20T04:44:03.636Z,5.02
2022-12-20T04:46:30.190Z,5.07
2022-12-20T04:48:59.018Z,5.06
2022-12-20T04:51:27.578Z,5.07
2022-12-20T04:53:54.536Z,5.06
2022-12-20T04:56:28.702Z,5.02
2022-12-20T04:58:57.631Z,5.06
2022-12-20T05:01:24.295Z,5.07
2022-12-20T05:03:50.974Z,5.09
2022-12-20T05:06:17.863Z,5.03
2022-12-20T05:08:44.364Z,4.96
2022-12-20T05:11:11.818Z,4.96
2022-12-20T05:13:38.957Z,5.01
2022-12-20T05:16:05.694Z,4.95
2022-12-20T05:18:32.506Z,4.96
2022-12-20T05:21:19.307Z,4.93
2022-12-20T05:24:05.044Z,4.96
2022-12-20T05:26:33.958Z,5.00
2022-12-20T05:29:00.361Z,5.00
2022-12-20T05:31:27.028Z,4.99
2022-12-20T05:33:54.229Z,5.01
2022-12-20T05:36:20.702Z,4.96
2022-12-20T05:38:47.168Z,4.93
2022-12-20T05:41:13.638Z,4.86
2022-12-20T05:43:40.412Z,4.87
2022-12-20T05:46:07.173Z,4.90
2022-12-20T05:48:34.151Z,4.97
2022-12-20T05:51:01.246Z,4.98
2022-12-20T05:53:27.816Z,5.00
2022-12-20T05:55:54.522Z,5.02
2022-12-20T05:58:21.535Z,4.94
2022-12-20T06:00:48.010Z,4.90
2022-12-20T06:03:18.891Z,4.99
2022-12-20T06:05:46.417Z,4.99
2022-12-20T06:08:13.664Z,5.01
2022-12-20T06:10:44.154Z,4.99
2022-12-20T06:13:11.294Z,5.00
2022-12-20T06:15:38.391Z,4.97
2022-12-20T06:18:05.924Z,4.93
2022-12-20T06:20:33.706Z,4.93
2022-12-20T06:23:00.513Z,4.92
2022-12-20T06:25:27.183Z,4.96
2022-12-20T06:27:53.967Z,4.99
2022-12-20T06:30:20.519Z,5.02
2022-12-20T06:32:47.062Z,5.02
2022-12-20T06:35:14.613Z,5.00
2022-12-20T06:37:42.137Z,4.98
2022-12-20T06:40:10.841Z,5.00
2022-12-20T06:42:37.499Z,5.00
2022-12-20T06:45:05.005Z,5.02
2022-12-20T06:47:31.509Z,5.04
2022-12-20T06:49:58.158Z,5.03
2022-12-20T06:52:24.803Z,4.98
2022-12-20T06:54:52.692Z,4.93
2022-12-20T06:57:19.441Z,4.94
2022-12-20T06:59:45.985Z,4.92
2022-12-20T07:02:12.627Z,4.91
2022-12-20T07:04:39.304Z,4.94
2022-12-20T07:07:06.203Z,4.93
2022-12-20T07:09:32.897Z,4.93
2022-12-20T07:11:59.797Z,4.98
2022-12-20T07:14:26.296Z,5.02
2022-12-20T07:16:52.799Z,5.04
2022-12-20T07:19:19.247Z,5.04
2022-12-20T07:21:47.150Z,5.03
2022-12-20T07:24:13.574Z,5.06
2022-12-20T07:26:39.998Z,5.06
2022-12-20T07:29:10.463Z,5.01
2022-12-20T07:31:40.189Z,4.98
2022-12-20T07:34:06.658Z,4.97
2022-12-20T07:36:33.092Z,4.93
2022-12-20T07:38:59.523Z,4.94
2022-12-20T07:41:26.054Z,4.80
2022-12-20T07:43:52.566Z,4.87
2022-12-20T07:46:19.441Z,4.91
2022-12-20T07:48:45.992Z,4.94
2022-12-20T07:51:25.661Z,4.90
2022-12-20T07:54:02.295Z,4.96
2022-12-20T07:56:29.869Z,4.98
2022-12-20T07:58:59.525Z,4.96
2022-12-20T08:01:28.202Z,4.92
2022-12-20T08:04:00.249Z,4.93
2022-12-20T08:06:26.783Z,4.96
2022-12-20T08:08:57.621Z,4.92
2022-12-20T08:11:25.846Z,4.95
2022-12-20T08:13:57.721Z,4.95
2022-12-20T08:16:25.859Z,4.94
2022-12-20T08:18:52.683Z,4.96
2022-12-20T08:21:19.165Z,5.00
2022-12-20T08:23:45.614Z,4.98
2022-12-20T08:26:12.034Z,4.97
2022-12-20T08:28:38.446Z,4.99
2022-12-20T08:31:07.289Z,4.98
2022-12-20T08:33:36.067Z,5.00
2022-12-20T08:36:06.455Z,5.03
2022-12-20T08:38:33.360Z,5.05
2022-12-20T08:41:09.059Z,5.01
2022-12-20T08:43:35.614Z,4.97
2022-12-20T08:46:02.554Z,5.01
2022-12-20T08:48:29.275Z,5.05
2022-12-20T08:50:57.577Z,5.05
2022-12-20T08:53:24.672Z,5.10
2022-12-20T08:55:51.620Z,5.11
2022-12-20T08:58:18.308Z,5.11
2022-12-20T09:00:45.406Z,5.10
2022-12-20T09:03:13.949Z,5.10
2022-12-20T09:05:45.379Z,5.13
2022-12-20T09:08:11.931Z,5.18
2022-12-20T09:10:38.475Z,5.17
2022-12-20T09:13:04.956Z,5.20
2022-12-20T09:15:31.882Z,5.14
2022-12-20T09:18:00.202Z,5.17
2022-12-20T09:20:27.068Z,5.24
2022-12-20T09:22:53.477Z,5.21
2022-12-20T09:25:19.936Z,5.17
2022-12-20T09:27:46.333Z,5.09
2022-12-20T09:30:12.896Z,5.13
2022-12-20T09:32:39.372Z,5.23
2022-12-20T09:35:06.627Z,5.22
2022-12-20T09:37:34.692Z,5.26
2022-12-20T09:40:07.455Z,5.27
2022-12-20T09:42:34.394Z,5.26
2022-12-20T09:45:10.284Z,5.22
2022-12-20T09:47:37.860Z,5.23
2022-12-20T09:50:08.179Z,5.24
2022-12-20T09:53:18.478Z,5.15
2022-12-20T09:55:56.539Z,5.17
2022-12-20T09:58:31.764Z,5.23
2022-12-20T10:00:58.584Z,5.26
2022-12-20T10:03:32.628Z,5.31
2022-12-20T10:06:09.079Z,5.27
2022-12-20T10:08:52.764Z,5.23
2022-12-20T10:12:09.819Z,5.17
2022-12-20T10:15:00.474Z,5.21
2022-12-20T10:17:54.001Z,5.22
2022-12-20T10:20:28.597Z,5.28
2022-12-20T10:23:15.274Z,5.28
2022-12-20T10:25:43.202Z,5.31
2022-12-20T10:28:14.002Z,5.32
2022-12-20T10:30:41.281Z,5.34
2022-12-20T10:33:21.871Z,5.34
2022-12-20T10:35:50.508Z,5.30
2022-12-20T10:38:18.345Z,5.42
2022-12-20T10:43:49.477Z,5.40
2022-12-20T10:46:19.455Z,5.39
2022-12-20T10:48:48.232Z,5.28
2022-12-20T10:51:22.558Z,5.31
2022-12-20T10:54:03.946Z,5.26
2022-12-20T10:56:34.147Z,5.28
2022-12-20T10:59:23.891Z,5.29
2022-12-20T11:01:50.697Z,5.39
2022-12-20T11:04:30.747Z,5.42
2022-12-20T11:06:58.397Z,5.41
2022-12-20T11:09:26.706Z,5.36
2022-12-20T11:12:07.700Z,5.42
2022-12-20T11:14:39.560Z,5.39
2022-12-20T11:17:28.196Z,5.36
2022-12-20T11:20:22.387Z,5.27
2022-12-20T11:23:16.001Z,5.32
2022-12-20T11:26:00.642Z,5.37
2022-12-20T11:28:50.323Z,5.36
2022-12-20T11:31:35.632Z,5.41
2022-12-20T11:34:03.338Z,5.50
2022-12-20T11:36:55.951Z,5.54
2022-12-20T11:40:09.644Z,5.59
2022-12-20T11:42:54.437Z,5.60
2022-12-20T11:45:26.850Z,5.55
2022-12-20T11:48:19.425Z,5.52
2022-12-20T11:50:54.146Z,5.55
2022-12-20T11:53:24.649Z,5.53
2022-12-20T11:55:56.225Z,5.58
2022-12-20T11:58:28.662Z,5.65
2022-12-20T12:01:08.663Z,5.66
2022-12-20T12:03:37.763Z,5.69
2022-12-20T12:06:20.402Z,5.70
2022-12-20T12:08:53.381Z,5.70
2022-12-20T12:12:05.132Z,5.70
2022-12-20T12:14:45.743Z,5.69
2022-12-20T12:17:21.879Z,5.61
2022-12-20T12:19:50.535Z,5.54
2022-12-20T12:22:24.571Z,5.56
2022-12-20T12:24:56.030Z,5.57
2022-12-20T12:27:24.787Z,5.55
2022-12-20T12:29:57.039Z,5.60
2022-12-20T12:32:31.199Z,5.64
2022-12-20T12:35:25.727Z,5.66
2022-12-20T12:38:33.981Z,5.62
2022-12-20T12:41:06.594Z,5.61
2022-12-20T12:43:51.896Z,5.60
2022-12-20T12:46:29.880Z,5.64
2022-12-20T12:49:01.896Z,5.69
2022-12-20T12:51:33.467Z,5.67
2022-12-20T12:54:06.469Z,5.71
2022-12-20T12:56:44.665Z,5.74
2022-12-20T12:59:24.151Z,5.70
2022-12-20T13:02:11.015Z,5.69
2022-12-20T13:05:12.720Z,5.69
2022-12-20T13:07:43.525Z,5.73
2022-12-20T13:10:10.980Z,5.80
2022-12-20T13:12:41.002Z,5.80
2022-12-20T13:15:19.656Z,5.83
2022-12-20T13:17:52.172Z,5.78
2022-12-20T13:20:30.793Z,5.81
2022-12-20T13:23:17.297Z,5.81
2022-12-20T13:25:48.247Z,5.73
2022-12-20T13:28:23.682Z,5.71
2022-12-20T13:30:53.225Z,5.73
2022-12-20T13:33:24.881Z,5.69
2022-12-20T13:35:55.689Z,5.64
2022-12-20T13:38:43.427Z,5.69
2022-12-20T13:41:19.743Z,5.74
2022-12-20T13:43:47.932Z,5.78
2022-12-20T13:46:24.259Z,5.79
2022-12-20T13:48:54.430Z,5.69
2022-12-20T13:51:24.756Z,5.72
2022-12-20T13:53:58.021Z,5.74
2022-12-20T13:56:35.751Z,5.69
2022-12-20T13:59:12.512Z,5.68
2022-12-20T14:01:48.577Z,5.69
2022-12-20T14:04:16.041Z,5.64
2022-12-20T14:06:42.714Z,5.61
2022-12-20T14:09:29.915Z,5.58
2022-12-20T14:12:17.889Z,5.52
2022-12-20T14:14:50.110Z,5.55
2022-12-20T14:17:44.385Z,5.59
2022-12-20T14:20:15.795Z,5.59
2022-12-20T14:22:52.222Z,5.62
2022-12-20T14:25:44.723Z,5.64
2022-12-20T14:28:31.330Z,5.58
2022-12-20T14:30:59.866Z,5.58
2022-12-20T14:33:33.843Z,5.58
2022-12-20T14:36:15.598Z,5.58
2022-12-20T14:38:44.540Z,5.48
2022-12-20T14:41:29.642Z,5.47
2022-12-20T14:43:59.327Z,5.49
2022-12-20T14:46:25.851Z,5.48
2022-12-20T14:49:31.887Z,5.47
2022-12-20T14:52:14.361Z,5.43
2022-12-20T14:55:07.904Z,5.46
2022-12-20T14:57:35.089Z,5.47
2022-12-20T15:00:10.549Z,5.44
2022-12-20T15:02:44.168Z,5.41
2022-12-20T15:05:32.264Z,5.49
2022-12-20T15:08:17.478Z,5.52
2022-12-20T15:11:22.850Z,5.53
2022-12-20T15:13:53.070Z,5.56
2022-12-20T15:16:24.903Z,5.51
2022-12-20T15:18:59.448Z,5.52
2022-12-20T15:21:30.581Z,5.51
2022-12-20T15:23:59.821Z,5.55
2022-12-20T15:26:27.245Z,5.52
2022-12-20T15:28:54.580Z,5.51
2022-12-20T15:31:30.794Z,5.50
2022-12-20T15:33:59.311Z,5.53
2022-12-20T15:36:28.651Z,5.55
2022-12-20T15:39:12.442Z,5.52
2022-12-20T15:41:48.675Z,5.53
2022-12-20T15:44:23.626Z,5.50
2022-12-20T15:46:51.039Z,5.51
2022-12-20T15:49:22.446Z,5.53
2022-12-20T15:51:52.351Z,5.51
2022-12-20T15:54:29.504Z,5.46
2022-12-20T15:56:58.105Z,5.46
2022-12-20T15:59:58.510Z,5.35
2022-12-20T16:02:24.210Z,5.33
2022-12-20T16:04:51.600Z,5.33
2022-12-20T16:07:18.072Z,5.29
2022-12-20T16:09:44.732Z,5.29
2022-12-20T16:12:16.002Z,5.30
2022-12-20T16:14:42.527Z,5.38
2022-12-20T16:17:15.142Z,5.44
2022-12-20T16:19:43.075Z,5.43
2022-12-20T16:22:19.292Z,5.47
2022-12-20T16:24:46.333Z,5.49
2022-12-20T16:27:13.082Z,5.46
2022-12-20T16:29:41.288Z,5.46
2022-12-20T16:32:19.531Z,5.47
2022-12-20T16:34:46.359Z,5.42
2022-12-20T16:37:13.620Z,5.38
2022-12-20T16:39:41.227Z,5.39
2022-12-20T16:42:22.455Z,5.42
2022-12-20T16:44:53.310Z,5.40
2022-12-20T16:47:19.791Z,5.40
2022-12-20T16:49:52.342Z,5.41
2022-12-20T16:52:23.525Z,5.38
2022-12-20T16:54:50.371Z,5.34
2022-12-20T16:57:16.793Z,5.38
2022-12-20T16:59:43.223Z,5.40
2022-12-20T17:02:28.815Z,5.35
2022-12-20T17:04:56.308Z,5.37
2022-12-20T17:07:22.714Z,5.39
2022-12-20T17:09:49.354Z,5.38
2022-12-20T17:12:21.104Z,5.38
2022-12-20T17:14:48.901Z,5.42
2022-12-20T17:17:15.372Z,5.45
2022-12-20T17:19:41.911Z,5.43
2022-12-20T17:24:56.373Z,5.39
2022-12-20T17:27:22.821Z,5.37
2022-12-20T17:29:50.673Z,5.41
2022-12-20T17:32:20.953Z,5.44
2022-12-20T17:34:47.522Z,5.42
2022-12-20T17:37:13.983Z,5.39
2022-12-20T17:39:40.470Z,5.40
2022-12-20T17:42:09.392Z,5.41
2022-12-20T17:44:35.799Z,5.37
2022-12-20T17:47:02.293Z,5.38
2022-12-20T17:49:28.683Z,5.30
2022-12-20T17:51:56.197Z,5.33
2022-12-20T17:54:30.781Z,5.37
2022-12-20T17:57:01.509Z,5.61
2022-12-20T17:59:29.247Z,5.61
2022-12-20T18:01:55.927Z,5.53
2022-12-20T18:04:22.571Z,5.51
2022-12-20T18:06:49.852Z,5.48
2022-12-20T18:09:21.479Z,5.48
2022-12-20T18:11:48.700Z,5.51
2022-12-20T18:14:15.625Z,5.53
2022-12-20T18:16:42.189Z,5.46
2022-12-20T18:19:15.795Z,5.43
2022-12-20T18:21:42.319Z,5.43
2022-12-20T18:24:13.341Z,5.45
2022-12-20T18:26:40.071Z,5.44
2022-12-20T18:29:06.497Z,5.46
2022-12-20T18:31:34.791Z,5.42
2022-12-20T18:34:02.489Z,5.42
2022-12-20T18:36:36.916Z,5.44
2022-12-20T18:39:06.329Z,5.45
2022-12-20T18:41:33.084Z,5.44
2022-12-20T18:44:01.881Z,5.43
2022-12-20T18:46:29.198Z,5.44
2022-12-20T18:48:58.090Z,5.39
2022-12-20T18:51:30.443Z,5.37
2022-12-20T18:53:58.877Z,5.39
2022-12-20T18:56:31.450Z,5.44
2022-12-20T18:59:04.634Z,5.47
2022-12-20T19:01:35.876Z,5.32
2022-12-20T19:04:04.877Z,5.33
2022-12-20T19:06:32.407Z,5.36
2022-12-20T19:09:00.192Z,5.40
2022-12-20T19:11:26.650Z,5.36
2022-12-20T19:13:53.092Z,5.42
2022-12-20T19:16:22.336Z,5.44
2022-12-20T19:18:49.752Z,5.42
2022-12-20T19:21:24.328Z,5.40
2022-12-20T19:23:53.540Z,5.39
2022-12-20T19:26:21.571Z,5.38
2022-12-20T19:28:48.890Z,5.42
2022-12-20T19:31:23.680Z,5.44
2022-12-20T19:34:12.631Z,5.40
2022-12-20T19:36:42.712Z,5.38
2022-12-20T19:39:14.652Z,5.41
2022-12-20T19:41:41.223Z,5.46
2022-12-20T19:44:08.801Z,5.49
2022-12-20T19:46:35.511Z,5.46
2022-12-20T19:49:02.109Z,5.45
2022-12-20T19:51:28.903Z,5.44
2022-12-20T19:53:57.443Z,5.43
2022-12-20T19:56:33.610Z,5.36
2022-12-20T19:59:00.995Z,5.40
2022-12-20T20:01:28.419Z,5.45
2022-12-20T20:03:56.870Z,5.41
2022-12-20T20:06:24.703Z,5.41
2022-12-20T20:08:51.532Z,5.42
2022-12-20T20:11:20.138Z,5.47
2022-12-20T20:13:47.127Z,5.50
2022-12-20T20:16:19.987Z,5.52
2022-12-20T20:18:49.108Z,5.47
2022-12-20T20:21:20.855Z,5.47
2022-12-20T20:23:47.417Z,5.49
2022-12-20T20:26:17.469Z,5.51
2022-12-20T20:28:44.813Z,5.54
2022-12-20T20:31:16.970Z,5.55
2022-12-20T20:33:43.961Z,5.54
2022-12-20T20:36:14.198Z,5.53
2022-12-20T20:38:40.883Z,5.47
2022-12-20T20:41:07.490Z,5.50
2022-12-20T20:43:37.608Z,5.50
2022-12-20T20:46:05.086Z,5.46
2022-12-20T20:48:31.953Z,5.43
2022-12-20T20:50:58.847Z,5.44
2022-12-20T20:53:31.052Z,5.47
2022-12-20T20:55:59.708Z,5.48
2022-12-20T20:58:27.899Z,5.49
2022-12-20T21:00:59.437Z,5.45
2022-12-20T21:03:27.073Z,5.47
2022-12-20T21:06:33.041Z,5.47
2022-12-20T21:08:40.076Z,5.42
2022-12-20T21:11:07.375Z,5.42
2022-12-20T21:13:34.076Z,5.41
2022-12-20T21:16:12.707Z,5.42
2022-12-20T21:18:39.690Z,5.44
2022-12-20T21:21:11.531Z,5.48
2022-12-20T21:23:39.604Z,5.44
2022-12-20T21:26:07.540Z,5.42
2022-12-20T21:28:34.447Z,5.37
2022-12-20T21:31:02.126Z,5.39
2022-12-20T21:33:29.181Z,5.38
2022-12-20T21:36:11.523Z,5.29
2022-12-20T21:38:37.983Z,5.29
2022-12-20T21:41:07.925Z,5.35
2022-12-20T21:43:34.506Z,5.42
2022-12-20T21:46:01.017Z,5.41
2022-12-20T21:48:29.653Z,5.39
2022-12-20T21:51:12.000Z,5.39
2022-12-20T21:53:43.672Z,5.40
2022-12-20T21:56:10.686Z,5.43
2022-12-20T21:58:37.817Z,5.42
2022-12-20T22:01:05.731Z,5.38
2022-12-20T22:03:54.805Z,5.39
2022-12-20T22:06:21.738Z,5.35
2022-12-20T22:08:48.275Z,5.33
2022-12-20T22:11:17.226Z,5.29
2022-12-20T22:13:44.618Z,5.28
2022-12-20T22:16:20.858Z,5.27
2022-12-20T22:18:52.606Z,5.24
2022-12-20T22:21:21.469Z,5.28
2022-12-20T22:23:48.369Z,5.31
2022-12-20T22:26:20.093Z,5.34
2022-12-20T22:28:51.978Z,5.30
2022-12-20T22:31:19.105Z,5.34
2022-12-20T22:33:46.188Z,5.37
2022-12-20T22:36:14.609Z,5.38
2022-12-20T22:38:42.803Z,5.40
2022-12-20T22:41:15.494Z,5.44
2022-12-20T22:43:44.580Z,5.45
2022-12-20T22:46:12.290Z,5.33
2022-12-20T22:48:39.551Z,5.33
2022-12-20T22:51:12.653Z,5.31
2022-12-20T22:53:40.180Z,5.36
2022-12-20T22:56:07.657Z,5.32
2022-12-20T22:58:35.316Z,5.32
2022-12-20T23:01:05.553Z,5.29
2022-12-20T23:03:32.285Z,5.33
2022-12-20T23:06:01.652Z,5.30
2022-12-20T23:08:32.113Z,5.23
2022-12-20T23:11:20.272Z,5.27
2022-12-20T23:14:05.103Z,5.29
2022-12-20T23:16:31.612Z,5.26
2022-12-20T23:19:00.800Z,5.20
2022-12-20T23:21:46.129Z,5.09
2022-12-20T23:24:13.429Z,5.16
2022-12-20T23:26:40.951Z,5.22
2022-12-20T23:29:08.963Z,5.23
2022-12-20T23:31:35.732Z,5.23
2022-12-20T23:34:02.799Z,5.22
2022-12-20T23:36:30.198Z,5.25
2022-12-20T23:38:56.919Z,5.28
2022-12-20T23:41:23.625Z,5.27
2022-12-20T23:43:50.101Z,5.25
2022-12-20T23:46:18.765Z,5.19
2022-12-20T23:48:45.578Z,5.21
2022-12-20T23:51:12.331Z,5.28
2022-12-20T23:53:39.168Z,5.31
2022-12-20T23:56:07.955Z,5.26
2022-12-20T23:58:35.073Z,5.23
